createdAt,value
2022-08-07T00:00:32.735Z,997.55
2022-08-07T00:01:43.781Z,997.56
2022-08-07T00:02:39.774Z,997.58
2022-08-07T00:03:36.581Z,997.59
2022-08-07T00:04:31.803Z,997.60
2022-08-07T00:05:31.692Z,997.60
2022-08-07T00:06:33.664Z,997.60
2022-08-07T00:07:40.562Z,997.60
2022-08-07T00:08:32.667Z,997.60
2022-08-07T00:09:35.573Z,997.58
2022-08-07T00:10:31.757Z,997.57
2022-08-07T00:11:33.293Z,997.56
2022-08-07T00:12:31.638Z,997.56
2022-08-07T00:13:31.640Z,997.56
2022-08-07T00:14:31.823Z,997.56
2022-08-07T00:15:36.034Z,997.56
2022-08-07T00:16:32.615Z,997.55
2022-08-07T00:17:35.318Z,997.53
2022-08-07T00:18:31.592Z,997.52
2022-08-07T00:19:59.686Z,997.53
2022-08-07T00:20:34.284Z,997.52
2022-08-07T00:21:56.352Z,997.51
2022-08-07T00:22:35.050Z,997.51
2022-08-07T00:23:31.560Z,997.51
2022-08-07T00:24:31.951Z,997.50
2022-08-07T00:25:37.398Z,997.47
2022-08-07T00:26:49.278Z,997.46
2022-08-07T00:27:51.852Z,997.47
2022-08-07T00:28:34.132Z,997.47
2022-08-07T00:29:32.095Z,997.47
2022-08-07T00:30:31.519Z,997.48
2022-08-07T00:31:37.921Z,997.47
2022-08-07T00:32:32.482Z,997.47
2022-08-07T00:33:32.930Z,997.46
2022-08-07T00:34:31.464Z,997.45
2022-08-07T00:35:31.476Z,997.44
2022-08-07T00:36:31.454Z,997.44
2022-08-07T00:37:47.722Z,997.42
2022-08-07T00:38:33.332Z,997.41
2022-08-07T00:39:31.497Z,997.41
2022-08-07T00:40:39.358Z,997.40
2022-08-07T00:41:32.423Z,997.40
2022-08-07T00:42:31.463Z,997.40
2022-08-07T00:44:01.046Z,997.40
2022-08-07T00:44:33.321Z,997.40
2022-08-07T00:45:31.409Z,997.40
2022-08-07T00:46:32.938Z,997.41
2022-08-07T00:48:09.702Z,997.41
2022-08-07T00:48:32.656Z,997.42
2022-08-07T00:50:20.738Z,997.41
2022-08-07T00:50:50.862Z,997.40
2022-08-07T00:51:58.481Z,997.39
2022-08-07T00:52:33.345Z,997.39
2022-08-07T00:53:39.101Z,997.40
2022-08-07T00:54:32.321Z,997.38
2022-08-07T00:56:02.313Z,997.39
2022-08-07T00:56:33.818Z,997.39
2022-08-07T00:57:34.148Z,997.37
2022-08-07T00:58:31.498Z,997.36
2022-08-07T00:59:35.467Z,997.35
2022-08-07T01:00:31.323Z,997.33
2022-08-07T01:01:41.486Z,997.33
2022-08-07T01:02:32.257Z,997.32
2022-08-07T01:03:56.252Z,997.30
2022-08-07T01:04:32.625Z,997.30
2022-08-07T01:05:31.252Z,997.28
2022-08-07T01:06:32.231Z,997.27
2022-08-07T01:07:31.546Z,997.26
2022-08-07T01:08:31.228Z,997.27
2022-08-07T01:10:04.817Z,997.26
2022-08-07T01:10:32.211Z,997.26
2022-08-07T01:12:09.035Z,997.26
2022-08-07T01:12:32.226Z,997.24
2022-08-07T01:13:35.054Z,997.23
2022-08-07T01:14:31.167Z,997.22
2022-08-07T01:16:00.610Z,997.21
2022-08-07T01:16:32.153Z,997.21
2022-08-07T01:17:31.148Z,997.20
2022-08-07T01:18:31.138Z,997.19
2022-08-07T01:19:32.203Z,997.20
2022-08-07T01:20:31.137Z,997.21
2022-08-07T01:21:31.114Z,997.20
2022-08-07T01:22:31.101Z,997.20
2022-08-07T01:23:36.848Z,997.21
2022-08-07T01:24:32.097Z,997.20
2022-08-07T01:25:54.810Z,997.18
2022-08-07T01:26:32.077Z,997.17
2022-08-07T01:27:32.527Z,997.16
2022-08-07T01:28:31.062Z,997.16
2022-08-07T01:29:31.431Z,997.15
2022-08-07T01:30:31.068Z,997.16
2022-08-07T01:31:42.332Z,997.16
2022-08-07T01:32:32.045Z,997.17
2022-08-07T01:33:55.955Z,997.18
2022-08-07T01:34:32.024Z,997.18
2022-08-07T01:35:53.198Z,997.17
2022-08-07T01:36:33.942Z,997.16
2022-08-07T01:37:30.989Z,997.15
2022-08-07T01:38:30.986Z,997.13
2022-08-07T01:39:40.735Z,997.13
2022-08-07T01:40:31.988Z,997.12
2022-08-07T01:41:30.962Z,997.12
2022-08-07T01:42:38.210Z,997.13
2022-08-07T01:43:38.143Z,997.12
2022-08-07T01:44:31.943Z,997.13
2022-08-07T01:45:37.241Z,997.12
2022-08-07T01:46:31.926Z,997.11
2022-08-07T01:48:27.350Z,997.11
2022-08-07T01:48:32.421Z,997.10
2022-08-07T01:49:31.871Z,997.10
2022-08-07T01:50:30.914Z,997.10
2022-08-07T01:52:01.134Z,997.09
2022-08-07T01:52:31.887Z,997.09
2022-08-07T01:54:08.482Z,997.09
2022-08-07T01:54:36.385Z,997.09
2022-08-07T01:55:30.875Z,997.09
2022-08-07T01:56:30.854Z,997.08
2022-08-07T01:57:30.861Z,997.09
2022-08-07T01:58:33.353Z,997.08
2022-08-07T01:59:31.632Z,997.10
2022-08-07T02:00:30.851Z,997.10
2022-08-07T02:02:02.446Z,997.12
2022-08-07T02:02:32.511Z,997.12
2022-08-07T02:03:42.755Z,997.13
2022-08-07T02:04:31.868Z,997.12
2022-08-07T02:05:43.313Z,997.11
2022-08-07T02:06:32.503Z,997.11
2022-08-07T02:07:36.242Z,997.12
2022-08-07T02:08:31.770Z,997.12
2022-08-07T02:09:51.690Z,997.12
2022-08-07T02:10:31.790Z,997.11
2022-08-07T02:12:02.862Z,997.12
2022-08-07T02:12:31.738Z,997.11
2022-08-07T02:13:58.245Z,997.11
2022-08-07T02:14:40.552Z,997.10
2022-08-07T02:15:31.715Z,997.10
2022-08-07T02:16:33.129Z,997.09
2022-08-07T02:17:34.025Z,997.09
2022-08-07T02:18:30.699Z,997.08
2022-08-07T02:20:07.817Z,997.08
2022-08-07T02:20:31.678Z,997.08
2022-08-07T02:21:55.193Z,997.09
2022-08-07T02:22:31.662Z,997.10
2022-08-07T02:23:30.652Z,997.10
2022-08-07T02:24:31.651Z,997.10
2022-08-07T02:26:10.142Z,997.12
2022-08-07T02:26:34.700Z,997.12
2022-08-07T02:27:34.380Z,997.13
2022-08-07T02:28:30.621Z,997.13
2022-08-07T02:29:30.662Z,997.12
2022-08-07T02:30:30.601Z,997.10
2022-08-07T02:31:30.613Z,997.08
2022-08-07T02:32:30.586Z,997.08
2022-08-07T02:33:42.084Z,997.06
2022-08-07T02:34:31.573Z,997.06
2022-08-07T02:36:30.728Z,997.05
2022-08-07T02:36:33.011Z,997.04
2022-08-07T02:37:35.913Z,997.05
2022-08-07T02:38:32.158Z,997.03
2022-08-07T02:39:43.906Z,997.03
2022-08-07T02:40:35.251Z,997.02
2022-08-07T02:41:33.637Z,997.01
2022-08-07T02:42:30.515Z,997.01
2022-08-07T02:43:30.502Z,997.00
2022-08-07T02:44:34.824Z,996.99
2022-08-07T02:46:00.434Z,996.99
2022-08-07T02:46:31.536Z,996.99
2022-08-07T02:47:45.161Z,997.00
2022-08-07T02:48:31.471Z,997.01
2022-08-07T02:49:58.312Z,997.02
2022-08-07T02:50:31.462Z,997.02
2022-08-07T02:51:49.648Z,997.02
2022-08-07T02:52:32.386Z,997.03
2022-08-07T02:53:30.432Z,997.04
2022-08-07T02:54:30.423Z,997.05
2022-08-07T02:56:03.014Z,997.04
2022-08-07T02:56:31.630Z,997.04
2022-08-07T02:57:31.048Z,997.02
2022-08-07T02:58:33.459Z,997.02
2022-08-07T02:59:30.393Z,997.02
2022-08-07T03:00:30.586Z,997.01
2022-08-07T03:01:35.946Z,997.01
2022-08-07T03:02:31.381Z,997.01
2022-08-07T03:03:49.143Z,997.01
2022-08-07T03:04:31.386Z,997.00
2022-08-07T03:05:35.990Z,997.00
2022-08-07T03:06:33.108Z,997.00
2022-08-07T03:08:04.601Z,996.99
2022-08-07T03:08:31.327Z,996.98
2022-08-07T03:09:41.825Z,996.97
2022-08-07T03:10:31.337Z,996.95
2022-08-07T03:11:32.934Z,996.94
2022-08-07T03:12:31.358Z,996.93
2022-08-07T03:13:30.290Z,996.93
2022-08-07T03:14:30.289Z,996.93
2022-08-07T03:15:47.831Z,996.93
2022-08-07T03:16:31.293Z,996.92
2022-08-07T03:17:30.442Z,996.92
2022-08-07T03:18:34.965Z,996.93
2022-08-07T03:19:36.892Z,996.93
2022-08-07T03:20:31.243Z,996.93
2022-08-07T03:21:33.199Z,996.93
2022-08-07T03:22:30.723Z,996.95
2022-08-07T03:23:33.904Z,996.94
2022-08-07T03:24:31.216Z,996.95
2022-08-07T03:25:32.505Z,996.94
2022-08-07T03:26:31.198Z,996.93
2022-08-07T03:27:42.128Z,996.93
2022-08-07T03:28:38.048Z,996.93
2022-08-07T03:29:30.175Z,996.92
2022-08-07T03:30:30.160Z,996.93
2022-08-07T03:31:43.433Z,996.93
2022-08-07T03:32:31.167Z,996.93
2022-08-07T03:33:32.246Z,996.93
2022-08-07T03:34:31.141Z,996.94
2022-08-07T03:35:43.876Z,996.93
2022-08-07T03:36:31.127Z,996.90
2022-08-07T03:37:30.156Z,996.90
2022-08-07T03:38:33.223Z,996.89
2022-08-07T03:39:56.594Z,996.89
2022-08-07T03:40:36.548Z,996.89
2022-08-07T03:41:42.328Z,996.89
2022-08-07T03:42:31.368Z,996.89
2022-08-07T03:43:32.126Z,996.88
2022-08-07T03:44:34.350Z,996.89
2022-08-07T03:45:31.502Z,996.88
2022-08-07T03:46:30.140Z,996.89
2022-08-07T03:47:47.896Z,996.87
2022-08-07T03:48:31.047Z,996.86
2022-08-07T03:49:30.054Z,996.86
2022-08-07T03:50:30.020Z,996.85
2022-08-07T03:51:30.845Z,996.86
2022-08-07T03:52:31.020Z,996.87
2022-08-07T03:54:00.691Z,996.87
2022-08-07T03:54:36.255Z,996.87
2022-08-07T03:55:53.139Z,996.87
2022-08-07T03:56:32.652Z,996.88
2022-08-07T03:58:32.891Z,996.89
2022-08-07T03:59:07.478Z,996.89
2022-08-07T03:59:30.948Z,996.90
2022-08-07T04:00:33.421Z,996.90
2022-08-07T04:01:30.007Z,996.90
2022-08-07T04:02:29.929Z,996.89
2022-08-07T04:03:49.719Z,996.88
2022-08-07T04:04:32.770Z,996.88
2022-08-07T04:05:40.983Z,996.87
2022-08-07T04:06:38.044Z,996.88
2022-08-07T04:07:36.192Z,996.86
2022-08-07T04:08:30.898Z,996.86
2022-08-07T04:09:44.644Z,996.87
2022-08-07T04:10:30.869Z,996.86
2022-08-07T04:12:25.455Z,996.86
2022-08-07T04:12:30.869Z,996.87
2022-08-07T04:13:29.845Z,996.87
2022-08-07T04:14:37.518Z,996.88
2022-08-07T04:15:30.835Z,996.87
2022-08-07T04:16:30.799Z,996.87
2022-08-07T04:18:31.115Z,996.86
2022-08-07T04:18:59.130Z,996.85
2022-08-07T04:19:51.140Z,996.85
2022-08-07T04:20:30.825Z,996.86
2022-08-07T04:21:31.875Z,996.85
2022-08-07T04:22:30.041Z,996.86
2022-08-07T04:23:43.600Z,996.88
2022-08-07T04:24:38.808Z,996.89
2022-08-07T04:25:30.754Z,996.90
2022-08-07T04:26:29.748Z,996.91
2022-08-07T04:27:35.684Z,996.91
2022-08-07T04:28:30.741Z,996.91
2022-08-07T04:29:40.328Z,996.91
2022-08-07T04:30:43.927Z,996.91
2022-08-07T04:31:39.043Z,996.92
2022-08-07T04:32:34.444Z,996.94
2022-08-07T04:33:29.695Z,996.94
2022-08-07T04:34:33.089Z,996.95
2022-08-07T04:35:35.171Z,996.96
2022-08-07T04:36:30.708Z,996.95
2022-08-07T04:37:29.682Z,996.95
2022-08-07T04:38:30.672Z,996.96
2022-08-07T04:39:35.606Z,996.97
2022-08-07T04:40:32.255Z,996.99
2022-08-07T04:41:29.641Z,997.00
2022-08-07T04:42:29.650Z,997.02
2022-08-07T04:44:13.142Z,997.02
2022-08-07T04:44:30.621Z,997.02
2022-08-07T04:46:00.295Z,997.02
2022-08-07T04:46:34.816Z,997.00
2022-08-07T04:47:58.893Z,997.01
2022-08-07T04:48:30.587Z,997.01
2022-08-07T04:49:29.571Z,997.01
2022-08-07T04:50:29.577Z,997.02
2022-08-07T04:51:29.588Z,997.03
2022-08-07T04:52:29.557Z,997.04
2022-08-07T04:54:01.691Z,997.05
2022-08-07T04:54:30.561Z,997.08
2022-08-07T04:58:15.140Z,997.14
2022-08-07T04:58:16.042Z,997.10
2022-08-07T04:58:16.149Z,997.12
2022-08-07T04:58:49.661Z,997.16
2022-08-07T05:00:10.703Z,997.16
2022-08-07T05:00:32.334Z,997.16
2022-08-07T05:01:30.051Z,997.17
2022-08-07T05:02:29.487Z,997.17
2022-08-07T05:04:00.519Z,997.17
2022-08-07T05:04:30.476Z,997.18
2022-08-07T05:05:53.344Z,997.17
2022-08-07T05:06:43.770Z,997.17
2022-08-07T05:07:36.803Z,997.17
2022-08-07T05:08:59.607Z,997.16
2022-08-07T05:09:45.938Z,997.15
2022-08-07T05:10:30.431Z,997.15
2022-08-07T05:11:57.987Z,997.16
2022-08-07T05:12:30.762Z,997.15
2022-08-07T05:14:54.448Z,997.17
2022-08-07T05:14:55.862Z,997.18
2022-08-07T05:15:30.392Z,997.19
2022-08-07T05:16:29.388Z,997.20
2022-08-07T05:17:52.803Z,997.20
2022-08-07T05:18:30.368Z,997.20
2022-08-07T05:19:32.629Z,997.21
2022-08-07T05:20:30.361Z,997.23
2022-08-07T05:21:59.864Z,997.24
2022-08-07T05:22:30.374Z,997.26
2022-08-07T05:23:30.932Z,997.27
2022-08-07T05:24:30.617Z,997.28
2022-08-07T05:25:54.429Z,997.28
2022-08-07T05:26:30.318Z,997.29
2022-08-07T05:28:02.553Z,997.29
2022-08-07T05:28:30.466Z,997.29
2022-08-07T05:29:48.053Z,997.28
2022-08-07T05:30:33.058Z,997.28
2022-08-07T05:31:35.384Z,997.27
2022-08-07T05:32:30.351Z,997.28
2022-08-07T05:33:29.280Z,997.28
2022-08-07T05:34:29.261Z,997.29
2022-08-07T05:35:33.831Z,997.29
2022-08-07T05:36:35.419Z,997.30
2022-08-07T05:37:30.587Z,997.29
2022-08-07T05:38:59.732Z,997.29
2022-08-07T05:40:06.424Z,997.29
2022-08-07T05:40:30.243Z,997.30
2022-08-07T05:42:02.322Z,997.30
2022-08-07T05:42:34.448Z,997.30
2022-08-07T05:43:50.091Z,997.30
2022-08-07T05:44:30.182Z,997.30
2022-08-07T05:45:47.278Z,997.31
2022-08-07T05:46:30.171Z,997.31
2022-08-07T05:48:00.021Z,997.31
2022-08-07T05:48:30.170Z,997.32
2022-08-07T05:49:40.718Z,997.33
2022-08-07T05:50:30.142Z,997.35
2022-08-07T05:51:31.722Z,997.36
2022-08-07T05:52:32.527Z,997.36
2022-08-07T05:54:13.643Z,997.36
2022-08-07T05:54:44.416Z,997.37
2022-08-07T05:56:02.325Z,997.39
2022-08-07T05:56:30.358Z,997.39
2022-08-07T05:57:30.199Z,997.40
2022-08-07T05:58:36.902Z,997.41
2022-08-07T05:59:29.075Z,997.41
2022-08-07T06:00:29.066Z,997.42
2022-08-07T06:01:34.938Z,997.43
2022-08-07T06:02:30.746Z,997.44
2022-08-07T06:03:53.711Z,997.44
2022-08-07T06:04:30.424Z,997.44
2022-08-07T06:05:29.035Z,997.45
2022-08-07T06:06:29.979Z,997.45
2022-08-07T06:08:13.790Z,997.46
2022-08-07T06:08:31.510Z,997.45
2022-08-07T06:10:04.488Z,997.44
2022-08-07T06:10:29.995Z,997.43
2022-08-07T06:11:28.983Z,997.44
2022-08-07T06:12:33.052Z,997.44
2022-08-07T06:14:10.915Z,997.44
2022-08-07T06:14:30.269Z,997.44
2022-08-07T06:15:39.292Z,997.43
2022-08-07T06:16:29.950Z,997.42
2022-08-07T06:17:31.926Z,997.40
2022-08-07T06:18:29.949Z,997.40
2022-08-07T06:19:52.253Z,997.39
2022-08-07T06:20:38.142Z,997.39
2022-08-07T06:22:16.875Z,997.38
2022-08-07T06:22:29.902Z,997.39
2022-08-07T06:24:37.691Z,997.38
2022-08-07T06:24:45.721Z,997.37
2022-08-07T06:25:34.790Z,997.37
2022-08-07T06:26:29.875Z,997.36
2022-08-07T06:27:59.946Z,997.34
2022-08-07T06:28:29.873Z,997.34
2022-08-07T06:29:28.853Z,997.34
2022-08-07T06:30:35.628Z,997.33
2022-08-07T06:31:38.378Z,997.33
2022-08-07T06:32:29.836Z,997.33
2022-08-07T06:33:29.549Z,997.33
2022-08-07T06:34:30.413Z,997.34
2022-08-07T06:35:39.014Z,997.34
2022-08-07T06:36:35.239Z,997.31
2022-08-07T06:37:43.434Z,997.32
2022-08-07T06:38:30.337Z,997.31
2022-08-07T06:40:16.392Z,997.30
2022-08-07T06:40:34.261Z,997.29
2022-08-07T06:42:01.655Z,997.29
2022-08-07T06:42:33.115Z,997.30
2022-08-07T06:43:35.947Z,997.30
2022-08-07T06:44:33.907Z,997.30
2022-08-07T06:45:28.730Z,997.30
2022-08-07T06:46:31.528Z,997.31
2022-08-07T06:47:28.907Z,997.30
2022-08-07T06:48:29.723Z,997.30
2022-08-07T06:49:28.700Z,997.30
2022-08-07T06:50:30.481Z,997.29
2022-08-07T06:51:33.507Z,997.28
2022-08-07T06:52:31.727Z,997.28
2022-08-07T06:54:12.016Z,997.27
2022-08-07T06:55:32.011Z,997.25
2022-08-07T06:55:48.047Z,997.23
2022-08-07T06:56:29.659Z,997.23
2022-08-07T06:57:28.650Z,997.23
2022-08-07T06:58:29.653Z,997.24
2022-08-07T07:00:14.775Z,997.23
2022-08-07T07:00:30.393Z,997.22
2022-08-07T07:01:33.252Z,997.21
2022-08-07T07:02:53.570Z,997.18
2022-08-07T07:03:47.632Z,997.18
2022-08-07T07:04:33.236Z,997.18
2022-08-07T07:06:04.893Z,997.17
2022-08-07T07:06:29.574Z,997.17
2022-08-07T07:08:00.330Z,997.17
2022-08-07T07:08:29.840Z,997.15
2022-08-07T07:09:31.352Z,997.15
2022-08-07T07:10:28.583Z,997.13
2022-08-07T07:12:08.692Z,997.12
2022-08-07T07:12:33.439Z,997.12
2022-08-07T07:13:56.330Z,997.11
2022-08-07T07:14:29.528Z,997.10
2022-08-07T07:15:32.554Z,997.12
2022-08-07T07:16:30.254Z,997.12
2022-08-07T07:17:38.663Z,997.11
2022-08-07T07:18:47.164Z,997.12
2022-08-07T07:19:55.149Z,997.11
2022-08-07T07:20:29.472Z,997.11
2022-08-07T07:21:40.389Z,997.09
2022-08-07T07:22:35.955Z,997.09
2022-08-07T07:24:10.384Z,997.10
2022-08-07T07:24:29.446Z,997.08
2022-08-07T07:26:32.140Z,997.05
2022-08-07T07:26:32.620Z,997.04
2022-08-07T07:27:35.571Z,997.05
2022-08-07T07:28:42.077Z,997.03
2022-08-07T07:29:56.491Z,996.98
2022-08-07T07:30:37.832Z,996.97
2022-08-07T07:31:30.337Z,996.94
2022-08-07T07:32:29.382Z,996.89
2022-08-07T07:33:28.411Z,996.86
2022-08-07T07:34:30.894Z,996.85
2022-08-07T07:35:28.362Z,996.83
2022-08-07T07:36:32.613Z,996.80
2022-08-07T07:37:47.488Z,996.79
2022-08-07T07:38:29.573Z,996.78
2022-08-07T07:39:35.892Z,996.76
2022-08-07T07:40:29.326Z,996.72
2022-08-07T07:41:30.782Z,996.73
2022-08-07T07:42:32.909Z,996.75
2022-08-07T07:44:14.041Z,996.74
2022-08-07T07:44:29.295Z,996.73
2022-08-07T07:46:36.484Z,996.79
2022-08-07T07:46:40.314Z,996.76
2022-08-07T07:47:29.288Z,996.77
2022-08-07T07:48:34.999Z,996.79
2022-08-07T07:50:32.840Z,996.80
2022-08-07T07:50:36.255Z,996.80
2022-08-07T07:51:28.244Z,996.83
2022-08-07T07:52:28.437Z,996.85
2022-08-07T07:53:28.239Z,996.85
2022-08-07T07:54:29.212Z,996.87
2022-08-07T07:55:37.812Z,996.85
2022-08-07T07:56:29.978Z,996.87
2022-08-07T07:57:50.465Z,996.86
2022-08-07T07:58:29.195Z,996.83
2022-08-07T07:59:52.463Z,996.82
2022-08-07T08:00:34.230Z,996.78
2022-08-07T08:02:02.047Z,996.74
2022-08-07T08:02:35.707Z,996.65
2022-08-07T08:04:05.776Z,996.62
2022-08-07T08:04:29.188Z,996.56
2022-08-07T08:05:42.796Z,996.54
2022-08-07T08:06:29.127Z,996.51
2022-08-07T08:07:35.869Z,996.50
2022-08-07T08:08:34.790Z,996.50
2022-08-07T08:09:29.865Z,996.49
2022-08-07T08:10:35.572Z,996.51
2022-08-07T08:11:59.447Z,996.53
2022-08-07T08:12:52.033Z,996.56
2022-08-07T08:13:36.687Z,996.56
2022-08-07T08:14:29.073Z,996.56
2022-08-07T08:15:28.068Z,996.58
2022-08-07T08:16:30.034Z,996.60
2022-08-07T08:17:56.564Z,996.62
2022-08-07T08:18:29.032Z,996.63
2022-08-07T08:20:17.029Z,996.63
2022-08-07T08:20:32.112Z,996.65
2022-08-07T08:22:02.624Z,996.67
2022-08-07T08:22:32.657Z,996.62
2022-08-07T08:23:28.149Z,996.66
2022-08-07T08:24:36.591Z,996.69
2022-08-07T08:25:42.785Z,996.68
2022-08-07T08:26:28.970Z,996.69
2022-08-07T08:27:33.681Z,996.69
2022-08-07T08:28:37.732Z,996.68
2022-08-07T08:29:28.033Z,996.67
2022-08-07T08:30:27.957Z,996.68
2022-08-07T08:31:59.038Z,996.65
2022-08-07T08:32:39.513Z,996.66
2022-08-07T08:33:33.018Z,996.67
2022-08-07T08:34:29.175Z,996.66
2022-08-07T08:35:28.919Z,996.62
2022-08-07T08:36:29.973Z,996.64
2022-08-07T08:38:00.466Z,996.61
2022-08-07T08:38:29.911Z,996.61
2022-08-07T08:39:39.635Z,996.57
2022-08-07T08:40:29.047Z,996.55
2022-08-07T08:41:31.435Z,996.51
2022-08-07T08:42:28.854Z,996.47
2022-08-07T08:43:41.790Z,996.41
2022-08-07T08:44:29.333Z,996.43
2022-08-07T08:45:41.897Z,996.38
2022-08-07T08:46:28.824Z,996.35
2022-08-07T08:47:27.989Z,996.33
2022-08-07T08:48:32.452Z,996.31
2022-08-07T08:49:33.432Z,996.27
2022-08-07T08:50:35.386Z,996.29
2022-08-07T08:52:00.770Z,996.30
2022-08-07T08:52:32.167Z,996.30
2022-08-07T08:53:29.286Z,996.23
2022-08-07T08:54:27.798Z,996.22
2022-08-07T08:55:54.935Z,996.20
2022-08-07T08:56:28.759Z,996.19
2022-08-07T08:57:30.117Z,996.19
2022-08-07T08:58:28.903Z,996.14
2022-08-07T08:59:27.791Z,996.15
2022-08-07T09:00:28.637Z,996.12
2022-08-07T09:01:29.625Z,996.11
2022-08-07T09:02:34.784Z,996.11
2022-08-07T09:03:49.474Z,996.10
2022-08-07T09:04:30.170Z,996.09
2022-08-07T09:05:37.294Z,996.08
2022-08-07T09:06:28.687Z,996.08
2022-08-07T09:07:28.001Z,996.08
2022-08-07T09:08:28.979Z,996.08
2022-08-07T09:09:30.283Z,996.04
2022-08-07T09:10:27.682Z,996.07
2022-08-07T09:11:50.814Z,996.07
2022-08-07T09:12:31.891Z,996.08
2022-08-07T09:13:35.325Z,996.11
2022-08-07T09:14:29.683Z,996.05
2022-08-07T09:16:20.645Z,996.01
2022-08-07T09:16:29.806Z,996.04
2022-08-07T09:17:33.946Z,996.02
2022-08-07T09:18:28.634Z,995.98
2022-08-07T09:19:51.047Z,996.04
2022-08-07T09:20:35.306Z,996.06
2022-08-07T09:21:58.070Z,996.01
2022-08-07T09:24:32.368Z,995.92
2022-08-07T09:24:34.081Z,996.04
2022-08-07T09:24:55.125Z,995.94
2022-08-07T09:25:28.567Z,995.93
2022-08-07T09:26:27.568Z,995.95
2022-08-07T09:27:27.820Z,995.90
2022-08-07T09:30:01.698Z,995.90
2022-08-07T09:30:03.417Z,995.88
2022-08-07T09:30:28.540Z,995.91
2022-08-07T09:31:27.531Z,995.91
2022-08-07T09:32:28.521Z,995.92
2022-08-07T09:33:52.442Z,995.93
2022-08-07T09:34:28.523Z,995.90
2022-08-07T09:36:05.295Z,995.84
2022-08-07T09:36:31.181Z,995.87
2022-08-07T09:37:47.793Z,995.82
2022-08-07T09:38:28.528Z,995.83
2022-08-07T09:39:54.627Z,995.80
2022-08-07T09:40:28.523Z,995.81
2022-08-07T09:41:27.791Z,995.81
2022-08-07T09:42:33.003Z,995.85
2022-08-07T09:44:03.493Z,995.78
2022-08-07T09:44:46.528Z,995.79
2022-08-07T09:47:37.226Z,995.74
2022-08-07T09:47:52.607Z,995.71
2022-08-07T09:48:00.907Z,995.72
2022-08-07T09:48:29.695Z,995.70
2022-08-07T09:50:02.932Z,995.65
2022-08-07T09:50:30.193Z,995.67
2022-08-07T09:52:09.787Z,995.72
2022-08-07T09:52:33.791Z,995.67
2022-08-07T09:53:41.373Z,995.70
2022-08-07T09:54:28.443Z,995.56
2022-08-07T09:55:36.922Z,995.64
2022-08-07T09:56:37.668Z,995.65
2022-08-07T09:57:28.668Z,995.68
2022-08-07T09:58:32.155Z,995.65
2022-08-07T09:59:35.653Z,995.60
2022-08-07T10:00:29.943Z,995.60
2022-08-07T10:01:51.100Z,995.60
2022-08-07T10:02:29.536Z,995.62
2022-08-07T10:04:05.603Z,995.53
2022-08-07T10:04:32.558Z,995.50
2022-08-07T10:05:58.205Z,995.55
2022-08-07T10:06:28.386Z,995.50
2022-08-07T10:07:31.615Z,995.49
2022-08-07T10:08:27.360Z,995.44
2022-08-07T10:09:42.958Z,995.46
2022-08-07T10:10:28.361Z,995.46
2022-08-07T10:11:59.802Z,995.47
2022-08-07T10:12:28.484Z,995.38
2022-08-07T10:13:55.518Z,995.36
2022-08-07T10:14:31.337Z,995.29
2022-08-07T10:15:27.290Z,995.36
2022-08-07T10:16:27.282Z,995.34
2022-08-07T10:17:30.969Z,995.29
2022-08-07T10:18:28.265Z,995.29
2022-08-07T10:19:27.277Z,995.25
2022-08-07T10:20:30.404Z,995.28
2022-08-07T10:22:12.157Z,995.26
2022-08-07T10:22:33.349Z,995.27
2022-08-07T10:24:05.312Z,995.20
2022-08-07T10:24:28.284Z,995.21
2022-08-07T10:25:42.489Z,995.15
2022-08-07T10:26:28.229Z,995.20
2022-08-07T10:27:29.989Z,995.20
2022-08-07T10:28:28.227Z,995.19
2022-08-07T10:29:30.384Z,995.18
2022-08-07T10:30:27.222Z,995.14
2022-08-07T10:31:27.209Z,995.20
2022-08-07T10:32:51.301Z,995.18
2022-08-07T10:34:15.609Z,995.18
2022-08-07T10:34:32.347Z,995.11
2022-08-07T10:35:27.208Z,995.09
2022-08-07T10:36:29.752Z,995.18
2022-08-07T10:38:00.065Z,995.10
2022-08-07T10:38:35.923Z,995.11
2022-08-07T10:39:41.475Z,995.12
2022-08-07T10:40:30.374Z,994.99
2022-08-07T10:41:51.609Z,995.10
2022-08-07T10:42:34.283Z,995.03
2022-08-07T10:43:29.861Z,995.05
2022-08-07T10:44:33.742Z,995.01
2022-08-07T10:45:48.016Z,995.05
2022-08-07T10:46:28.141Z,995.03
2022-08-07T10:47:50.570Z,995.00
2022-08-07T10:48:34.580Z,994.99
2022-08-07T10:49:49.269Z,994.97
2022-08-07T10:50:28.133Z,994.98
2022-08-07T10:51:57.662Z,994.98
2022-08-07T10:52:31.695Z,994.98
2022-08-07T10:53:28.102Z,994.99
2022-08-07T10:54:28.104Z,994.86
2022-08-07T10:55:38.174Z,994.91
2022-08-07T10:56:31.060Z,994.93
2022-08-07T10:57:34.423Z,994.97
2022-08-07T10:58:33.352Z,994.95
2022-08-07T10:59:30.212Z,994.94
2022-08-07T11:00:36.468Z,994.88
2022-08-07T11:01:35.378Z,994.90
2022-08-07T11:02:34.176Z,994.94
2022-08-07T11:03:37.340Z,994.83
2022-08-07T11:04:34.488Z,994.93
2022-08-07T11:05:35.833Z,994.92
2022-08-07T11:06:28.049Z,994.91
2022-08-07T11:08:00.504Z,994.88
2022-08-07T11:08:30.296Z,994.85
2022-08-07T11:10:09.132Z,994.88
2022-08-07T11:10:28.048Z,994.89
2022-08-07T11:11:27.087Z,994.86
2022-08-07T11:12:31.588Z,994.91
2022-08-07T11:14:44.399Z,994.80
2022-08-07T11:14:57.311Z,994.86
2022-08-07T11:15:31.842Z,994.80
2022-08-07T11:16:30.562Z,994.78
2022-08-07T11:17:45.118Z,994.81
2022-08-07T11:18:28.020Z,994.77
2022-08-07T11:19:27.454Z,994.79
2022-08-07T11:20:27.007Z,994.77
2022-08-07T11:21:26.974Z,994.75
2022-08-07T11:22:36.143Z,994.74
2022-08-07T11:23:36.362Z,994.71
2022-08-07T11:24:27.974Z,994.71
2022-08-07T11:25:26.981Z,994.69
2022-08-07T11:26:26.992Z,994.69
2022-08-07T11:28:00.812Z,994.68
2022-08-07T11:28:27.965Z,994.65
2022-08-07T11:29:40.855Z,994.65
2022-08-07T11:30:42.028Z,994.64
2022-08-07T11:31:27.945Z,994.60
2022-08-07T11:32:26.936Z,994.58
2022-08-07T11:33:58.356Z,994.56
2022-08-07T11:34:27.932Z,994.56
2022-08-07T11:35:27.148Z,994.56
2022-08-07T11:36:30.959Z,994.60
2022-08-07T11:37:38.638Z,994.54
2022-08-07T11:38:28.338Z,994.55
2022-08-07T11:39:39.579Z,994.55
2022-08-07T11:40:27.961Z,994.54
2022-08-07T11:41:31.099Z,994.53
2022-08-07T11:42:27.909Z,994.53
2022-08-07T11:43:41.726Z,994.46
2022-08-07T11:44:27.944Z,994.37
2022-08-07T11:45:35.516Z,994.47
2022-08-07T11:46:26.887Z,994.47
2022-08-07T11:47:27.211Z,994.33
2022-08-07T11:48:29.605Z,994.36
2022-08-07T11:49:50.582Z,994.35
2022-08-07T11:50:32.714Z,994.42
2022-08-07T11:51:44.867Z,994.41
2022-08-07T11:52:29.423Z,994.39
2022-08-07T11:53:26.856Z,994.40
2022-08-07T11:54:26.860Z,994.40
2022-08-07T11:56:25.528Z,994.40
2022-08-07T11:56:28.778Z,994.31
2022-08-07T11:57:58.031Z,994.26
2022-08-07T11:58:33.416Z,994.26
2022-08-07T12:00:10.988Z,994.30
2022-08-07T12:00:28.613Z,994.34
2022-08-07T12:01:26.819Z,994.36
2022-08-07T12:02:30.774Z,994.36
2022-08-07T12:03:45.265Z,994.32
2022-08-07T12:04:27.889Z,994.32
2022-08-07T12:05:28.645Z,994.29
2022-08-07T12:06:37.774Z,994.28
2022-08-07T12:07:39.128Z,994.32
2022-08-07T12:08:31.716Z,994.26
2022-08-07T12:09:26.784Z,994.23
2022-08-07T12:10:26.797Z,994.27
2022-08-07T12:11:32.447Z,994.23
2022-08-07T12:12:27.859Z,994.24
2022-08-07T12:13:35.506Z,994.25
2022-08-07T12:14:27.772Z,994.24
2022-08-07T12:15:46.200Z,994.29
2022-08-07T12:16:30.636Z,994.18
2022-08-07T12:17:26.757Z,994.18
2022-08-07T12:18:29.522Z,994.19
2022-08-07T12:19:35.387Z,994.18
2022-08-07T12:20:30.872Z,994.19
2022-08-07T12:21:55.892Z,994.22
2022-08-07T12:22:37.934Z,994.19
2022-08-07T12:24:05.538Z,994.29
2022-08-07T12:24:38.014Z,994.28
2022-08-07T12:26:03.249Z,994.20
2022-08-07T12:26:30.920Z,994.12
2022-08-07T12:28:09.860Z,994.16
2022-08-07T12:28:31.195Z,994.17